X  Chiuso Dati meteorologici dell'aviazione (METAR)     LIML Milano Linate Airport
Temperatura
35°C Temperatura
16°C Punto di rugiada
32% Umidità



Vento
11 KM/O
7 MPH
3 M/S
6 KTS



250°
OSO
Condizioni attuali

Chiaro Chiaro
Pressione 1010.92 (hPa) - 29.85 (inHg)
Visibilità 6.2 (miglio) - 10 (km)
Aeroporto
Codice-Aeroporto LIML

Posizione: Milano Linate Airport
Distanza: 6 (km)

Metar:
LIML 051620Z 25006KT 210V290 CAVOK 35/16 Q1011 NOSIG

Ore: 05-08-2022 18:20 CEST